sensor_id;sensor_type;location;lat;lon;timestamp;temperature;humidity
17845;DHT22;9047;53.486;10.218;2022-12-24T00:01:39;5.40;99.90
17845;DHT22;9047;53.486;10.218;2022-12-24T00:04:07;5.40;99.90
17845;DHT22;9047;53.486;10.218;2022-12-24T00:06:36;5.40;99.90
17845;DHT22;9047;53.486;10.218;2022-12-24T00:09:03;5.40;99.90
17845;DHT22;9047;53.486;10.218;2022-12-24T00:11:30;5.50;99.90
17845;DHT22;9047;53.486;10.218;2022-12-24T00:13:58;5.50;99.90
17845;DHT22;9047;53.486;10.218;2022-12-24T00:16:25;5.50;99.90
17845;DHT22;9047;53.486;10.218;2022-12-24T00:18:53;5.40;99.90
17845;DHT22;9047;53.486;10.218;2022-12-24T00:21:23;5.40;99.90
17845;DHT22;9047;53.486;10.218;2022-12-24T00:24:01;5.40;99.90
17845;DHT22;9047;53.486;10.218;2022-12-24T00:26:30;5.40;99.90
17845;DHT22;9047;53.486;10.218;2022-12-24T00:28:57;5.40;99.90
17845;DHT22;9047;53.486;10.218;2022-12-24T00:31:24;5.50;99.90
17845;DHT22;9047;53.486;10.218;2022-12-24T00:33:51;5.40;99.90
17845;DHT22;9047;53.486;10.218;2022-12-24T00:36:21;5.40;99.90
17845;DHT22;9047;53.486;10.218;2022-12-24T00:38:49;5.40;99.90
17845;DHT22;9047;53.486;10.218;2022-12-24T00:41:17;5.40;99.90
17845;DHT22;9047;53.486;10.218;2022-12-24T00:43:51;5.40;99.90
17845;DHT22;9047;53.486;10.218;2022-12-24T00:46:18;5.40;99.90
17845;DHT22;9047;53.486;10.218;2022-12-24T00:48:45;5.40;99.90
17845;DHT22;9047;53.486;10.218;2022-12-24T00:51:12;5.40;99.90
17845;DHT22;9047;53.486;10.218;2022-12-24T00:53:39;5.50;99.90
17845;DHT22;9047;53.486;10.218;2022-12-24T00:56:09;5.40;99.90
17845;DHT22;9047;53.486;10.218;2022-12-24T00:58:37;5.40;99.90
17845;DHT22;9047;53.486;10.218;2022-12-24T01:01:06;5.40;99.90
17845;DHT22;9047;53.486;10.218;2022-12-24T01:03:34;5.40;99.90
17845;DHT22;9047;53.486;10.218;2022-12-24T01:06:01;5.40;99.90
17845;DHT22;9047;53.486;10.218;2022-12-24T01:08:28;5.40;99.90
17845;DHT22;9047;53.486;10.218;2022-12-24T01:10:57;5.40;99.90
17845;DHT22;9047;53.486;10.218;2022-12-24T01:13:25;5.40;99.90
17845;DHT22;9047;53.486;10.218;2022-12-24T01:15:54;5.40;99.90
17845;DHT22;9047;53.486;10.218;2022-12-24T01:18:21;5.40;99.90
17845;DHT22;9047;53.486;10.218;2022-12-24T01:20:55;5.40;99.90
17845;DHT22;9047;53.486;10.218;2022-12-24T01:23:23;5.30;99.90
17845;DHT22;9047;53.486;10.218;2022-12-24T01:25:50;5.50;99.90
17845;DHT22;9047;53.486;10.218;2022-12-24T01:28:18;5.40;99.90
17845;DHT22;9047;53.486;10.218;2022-12-24T01:30:45;5.40;99.90
17845;DHT22;9047;53.486;10.218;2022-12-24T01:33:13;5.40;99.90
17845;DHT22;9047;53.486;10.218;2022-12-24T01:35:40;5.40;99.90
17845;DHT22;9047;53.486;10.218;2022-12-24T01:38:09;5.40;99.90
17845;DHT22;9047;53.486;10.218;2022-12-24T01:40:37;5.40;99.90
17845;DHT22;9047;53.486;10.218;2022-12-24T01:43:22;5.40;99.90
17845;DHT22;9047;53.486;10.218;2022-12-24T01:45:52;5.40;99.90
17845;DHT22;9047;53.486;10.218;2022-12-24T01:48:27;5.40;99.90
17845;DHT22;9047;53.486;10.218;2022-12-24T01:50:59;5.40;99.90
17845;DHT22;9047;53.486;10.218;2022-12-24T01:53:28;5.30;99.90
17845;DHT22;9047;53.486;10.218;2022-12-24T01:55:56;5.30;99.90
17845;DHT22;9047;53.486;10.218;2022-12-24T01:58:25;5.30;99.90
17845;DHT22;9047;53.486;10.218;2022-12-24T02:00:52;5.30;99.90
17845;DHT22;9047;53.486;10.218;2022-12-24T02:03:21;5.30;99.90
17845;DHT22;9047;53.486;10.218;2022-12-24T02:05:51;5.50;99.90
17845;DHT22;9047;53.486;10.218;2022-12-24T02:08:19;5.30;99.90
17845;DHT22;9047;53.486;10.218;2022-12-24T02:10:47;5.30;99.90
17845;DHT22;9047;53.486;10.218;2022-12-24T02:13:17;5.30;99.90
17845;DHT22;9047;53.486;10.218;2022-12-24T02:15:55;5.30;99.90
17845;DHT22;9047;53.486;10.218;2022-12-24T02:18:32;5.30;99.90
17845;DHT22;9047;53.486;10.218;2022-12-24T02:21:22;5.30;99.90
17845;DHT22;9047;53.486;10.218;2022-12-24T02:24:21;5.30;99.90
17845;DHT22;9047;53.486;10.218;2022-12-24T02:27:11;5.30;99.90
17845;DHT22;9047;53.486;10.218;2022-12-24T02:30:04;5.30;99.90
17845;DHT22;9047;53.486;10.218;2022-12-24T02:32:35;5.30;99.90
17845;DHT22;9047;53.486;10.218;2022-12-24T02:35:10;5.30;99.90
17845;DHT22;9047;53.486;10.218;2022-12-24T02:37:46;5.30;99.90
17845;DHT22;9047;53.486;10.218;2022-12-24T02:40:18;5.30;99.90
17845;DHT22;9047;53.486;10.218;2022-12-24T02:42:50;5.30;99.90
17845;DHT22;9047;53.486;10.218;2022-12-24T02:45:22;5.30;99.90
17845;DHT22;9047;53.486;10.218;2022-12-24T02:47:54;5.30;99.90
17845;DHT22;9047;53.486;10.218;2022-12-24T02:50:22;5.30;99.90
17845;DHT22;9047;53.486;10.218;2022-12-24T02:52:49;5.30;99.90
17845;DHT22;9047;53.486;10.218;2022-12-24T02:55:23;5.30;99.90
17845;DHT22;9047;53.486;10.218;2022-12-24T02:58:18;5.30;99.90
17845;DHT22;9047;53.486;10.218;2022-12-24T03:00:58;5.30;99.90
17845;DHT22;9047;53.486;10.218;2022-12-24T03:03:51;5.30;99.90
17845;DHT22;9047;53.486;10.218;2022-12-24T03:06:31;5.30;99.90
17845;DHT22;9047;53.486;10.218;2022-12-24T03:09:07;5.30;99.90
17845;DHT22;9047;53.486;10.218;2022-12-24T03:11:42;5.40;99.90
17845;DHT22;9047;53.486;10.218;2022-12-24T03:14:10;5.20;99.90
17845;DHT22;9047;53.486;10.218;2022-12-24T03:16:39;5.20;99.90
17845;DHT22;9047;53.486;10.218;2022-12-24T03:19:08;5.30;99.90
17845;DHT22;9047;53.486;10.218;2022-12-24T03:21:38;5.20;99.90
17845;DHT22;9047;53.486;10.218;2022-12-24T03:24:07;5.20;99.90
17845;DHT22;9047;53.486;10.218;2022-12-24T03:26:35;5.30;99.90
17845;DHT22;9047;53.486;10.218;2022-12-24T03:29:04;5.30;99.90
17845;DHT22;9047;53.486;10.218;2022-12-24T03:31:46;5.30;99.90
17845;DHT22;9047;53.486;10.218;2022-12-24T03:34:15;5.30;99.90
17845;DHT22;9047;53.486;10.218;2022-12-24T03:36:46;5.30;99.90
17845;DHT22;9047;53.486;10.218;2022-12-24T03:39:13;5.20;99.90
17845;DHT22;9047;53.486;10.218;2022-12-24T03:41:40;5.20;99.90
17845;DHT22;9047;53.486;10.218;2022-12-24T03:44:08;5.30;99.90
17845;DHT22;9047;53.486;10.218;2022-12-24T03:46:35;5.20;99.90
17845;DHT22;9047;53.486;10.218;2022-12-24T03:49:03;5.20;99.90
17845;DHT22;9047;53.486;10.218;2022-12-24T03:51:30;5.20;99.90
17845;DHT22;9047;53.486;10.218;2022-12-24T03:53:58;5.20;99.90
17845;DHT22;9047;53.486;10.218;2022-12-24T03:56:25;5.20;99.90
17845;DHT22;9047;53.486;10.218;2022-12-24T03:58:52;5.20;99.90
17845;DHT22;9047;53.486;10.218;2022-12-24T04:01:19;5.20;99.90
17845;DHT22;9047;53.486;10.218;2022-12-24T04:03:47;5.20;99.90
17845;DHT22;9047;53.486;10.218;2022-12-24T04:06:15;5.20;99.90
17845;DHT22;9047;53.486;10.218;2022-12-24T04:08:47;5.20;99.90
17845;DHT22;9047;53.486;10.218;2022-12-24T04:11:15;5.20;99.90
17845;DHT22;9047;53.486;10.218;2022-12-24T04:13:42;5.20;99.90
17845;DHT22;9047;53.486;10.218;2022-12-24T04:16:11;5.20;99.90
17845;DHT22;9047;53.486;10.218;2022-12-24T04:18:39;5.20;99.90
17845;DHT22;9047;53.486;10.218;2022-12-24T04:21:07;5.20;99.90
17845;DHT22;9047;53.486;10.218;2022-12-24T04:23:37;5.20;99.90
17845;DHT22;9047;53.486;10.218;2022-12-24T04:26:06;5.20;99.90
17845;DHT22;9047;53.486;10.218;2022-12-24T04:28:34;5.20;99.90
17845;DHT22;9047;53.486;10.218;2022-12-24T04:31:05;5.20;99.90
17845;DHT22;9047;53.486;10.218;2022-12-24T04:33:33;5.20;99.90
17845;DHT22;9047;53.486;10.218;2022-12-24T04:36:04;5.20;99.90
17845;DHT22;9047;53.486;10.218;2022-12-24T04:38:31;5.20;99.90
17845;DHT22;9047;53.486;10.218;2022-12-24T04:41:01;5.20;99.90
17845;DHT22;9047;53.486;10.218;2022-12-24T04:43:28;5.20;99.90
17845;DHT22;9047;53.486;10.218;2022-12-24T04:45:55;5.20;99.90
17845;DHT22;9047;53.486;10.218;2022-12-24T04:48:23;5.20;99.90
17845;DHT22;9047;53.486;10.218;2022-12-24T04:50:50;5.20;99.90
17845;DHT22;9047;53.486;10.218;2022-12-24T04:53:17;5.20;99.90
17845;DHT22;9047;53.486;10.218;2022-12-24T04:55:44;5.20;99.90
17845;DHT22;9047;53.486;10.218;2022-12-24T04:58:14;5.20;99.90
17845;DHT22;9047;53.486;10.218;2022-12-24T05:00:40;5.20;99.90
17845;DHT22;9047;53.486;10.218;2022-12-24T05:03:07;5.20;99.90
17845;DHT22;9047;53.486;10.218;2022-12-24T05:05:35;5.10;99.90
17845;DHT22;9047;53.486;10.218;2022-12-24T05:08:04;5.20;99.90
17845;DHT22;9047;53.486;10.218;2022-12-24T05:10:31;5.10;99.90
17845;DHT22;9047;53.486;10.218;2022-12-24T05:12:59;5.20;99.90
17845;DHT22;9047;53.486;10.218;2022-12-24T05:15:27;5.10;99.90
17845;DHT22;9047;53.486;10.218;2022-12-24T05:17:56;5.10;99.90
17845;DHT22;9047;53.486;10.218;2022-12-24T05:20:23;5.10;99.90
17845;DHT22;9047;53.486;10.218;2022-12-24T05:22:51;5.10;99.90
17845;DHT22;9047;53.486;10.218;2022-12-24T05:25:37;5.10;99.90
17845;DHT22;9047;53.486;10.218;2022-12-24T05:28:22;5.10;99.90
17845;DHT22;9047;53.486;10.218;2022-12-24T05:30:52;5.10;99.90
17845;DHT22;9047;53.486;10.218;2022-12-24T05:33:19;5.00;99.90
17845;DHT22;9047;53.486;10.218;2022-12-24T05:35:46;5.10;99.90
17845;DHT22;9047;53.486;10.218;2022-12-24T05:38:15;5.10;99.90
17845;DHT22;9047;53.486;10.218;2022-12-24T05:40:42;5.10;99.90
17845;DHT22;9047;53.486;10.218;2022-12-24T05:43:10;5.10;99.90
17845;DHT22;9047;53.486;10.218;2022-12-24T05:45:38;5.10;99.90
17845;DHT22;9047;53.486;10.218;2022-12-24T05:48:15;5.10;99.90
17845;DHT22;9047;53.486;10.218;2022-12-24T05:50:42;5.00;99.90
17845;DHT22;9047;53.486;10.218;2022-12-24T05:53:11;5.10;99.90
17845;DHT22;9047;53.486;10.218;2022-12-24T05:55:39;5.10;99.90
17845;DHT22;9047;53.486;10.218;2022-12-24T05:58:07;5.20;99.90
17845;DHT22;9047;53.486;10.218;2022-12-24T06:00:37;5.10;99.90
17845;DHT22;9047;53.486;10.218;2022-12-24T06:03:14;5.10;99.90
17845;DHT22;9047;53.486;10.218;2022-12-24T06:05:41;5.10;99.90
17845;DHT22;9047;53.486;10.218;2022-12-24T06:08:10;5.10;99.90
17845;DHT22;9047;53.486;10.218;2022-12-24T06:10:38;5.10;99.90
17845;DHT22;9047;53.486;10.218;2022-12-24T06:13:09;5.10;99.90
17845;DHT22;9047;53.486;10.218;2022-12-24T06:15:36;5.10;99.90
17845;DHT22;9047;53.486;10.218;2022-12-24T06:18:04;5.10;99.90
17845;DHT22;9047;53.486;10.218;2022-12-24T06:20:36;5.10;99.90
17845;DHT22;9047;53.486;10.218;2022-12-24T06:23:05;5.10;99.90
17845;DHT22;9047;53.486;10.218;2022-12-24T06:25:32;5.10;99.90
17845;DHT22;9047;53.486;10.218;2022-12-24T06:28:01;5.10;99.90
17845;DHT22;9047;53.486;10.218;2022-12-24T06:30:29;5.10;99.90
17845;DHT22;9047;53.486;10.218;2022-12-24T06:32:59;5.10;99.90
17845;DHT22;9047;53.486;10.218;2022-12-24T06:35:27;5.10;99.90
17845;DHT22;9047;53.486;10.218;2022-12-24T06:37:58;5.10;99.90
17845;DHT22;9047;53.486;10.218;2022-12-24T06:40:25;5.10;99.90
17845;DHT22;9047;53.486;10.218;2022-12-24T06:42:52;5.10;99.90
17845;DHT22;9047;53.486;10.218;2022-12-24T06:45:19;5.10;99.90
17845;DHT22;9047;53.486;10.218;2022-12-24T06:47:49;5.10;99.90
17845;DHT22;9047;53.486;10.218;2022-12-24T06:50:17;5.10;99.90
17845;DHT22;9047;53.486;10.218;2022-12-24T06:52:44;5.00;99.90
17845;DHT22;9047;53.486;10.218;2022-12-24T06:55:18;5.00;99.90
17845;DHT22;9047;53.486;10.218;2022-12-24T06:57:45;4.90;99.90
17845;DHT22;9047;53.486;10.218;2022-12-24T07:00:14;5.00;99.90
17845;DHT22;9047;53.486;10.218;2022-12-24T07:02:43;5.00;99.90
17845;DHT22;9047;53.486;10.218;2022-12-24T07:05:11;5.10;99.90
17845;DHT22;9047;53.486;10.218;2022-12-24T07:07:40;5.10;99.90
17845;DHT22;9047;53.486;10.218;2022-12-24T07:10:10;5.00;99.90
17845;DHT22;9047;53.486;10.218;2022-12-24T07:12:41;5.00;99.90
17845;DHT22;9047;53.486;10.218;2022-12-24T07:15:11;5.00;99.90
17845;DHT22;9047;53.486;10.218;2022-12-24T07:17:39;5.00;99.90
17845;DHT22;9047;53.486;10.218;2022-12-24T07:20:12;5.00;99.90
17845;DHT22;9047;53.486;10.218;2022-12-24T07:22:42;5.00;99.90
17845;DHT22;9047;53.486;10.218;2022-12-24T07:25:10;5.00;99.90
17845;DHT22;9047;53.486;10.218;2022-12-24T07:27:40;5.00;99.90
17845;DHT22;9047;53.486;10.218;2022-12-24T07:30:11;5.00;99.90
17845;DHT22;9047;53.486;10.218;2022-12-24T07:32:38;5.00;99.90
17845;DHT22;9047;53.486;10.218;2022-12-24T07:35:06;5.00;99.90
17845;DHT22;9047;53.486;10.218;2022-12-24T07:37:35;5.00;99.90
17845;DHT22;9047;53.486;10.218;2022-12-24T07:40:04;5.00;99.90
17845;DHT22;9047;53.486;10.218;2022-12-24T07:42:34;5.00;99.90
17845;DHT22;9047;53.486;10.218;2022-12-24T07:45:06;4.90;99.90
17845;DHT22;9047;53.486;10.218;2022-12-24T07:47:35;5.00;99.90
17845;DHT22;9047;53.486;10.218;2022-12-24T07:50:04;5.00;99.90
17845;DHT22;9047;53.486;10.218;2022-12-24T07:52:34;5.00;99.90
17845;DHT22;9047;53.486;10.218;2022-12-24T07:55:01;5.00;99.90
17845;DHT22;9047;53.486;10.218;2022-12-24T07:57:29;5.00;99.90
17845;DHT22;9047;53.486;10.218;2022-12-24T07:59:56;5.00;99.90
17845;DHT22;9047;53.486;10.218;2022-12-24T08:02:24;5.00;99.90
17845;DHT22;9047;53.486;10.218;2022-12-24T08:04:51;5.00;99.90
17845;DHT22;9047;53.486;10.218;2022-12-24T08:07:18;5.00;99.90
17845;DHT22;9047;53.486;10.218;2022-12-24T08:09:45;5.10;99.90
17845;DHT22;9047;53.486;10.218;2022-12-24T08:12:12;5.10;99.90
17845;DHT22;9047;53.486;10.218;2022-12-24T08:14:39;5.10;99.90
17845;DHT22;9047;53.486;10.218;2022-12-24T08:17:06;5.10;99.90
17845;DHT22;9047;53.486;10.218;2022-12-24T08:19:34;5.10;99.90
17845;DHT22;9047;53.486;10.218;2022-12-24T08:22:01;5.10;99.90
17845;DHT22;9047;53.486;10.218;2022-12-24T08:24:28;5.10;99.90
17845;DHT22;9047;53.486;10.218;2022-12-24T08:26:59;5.10;99.90
17845;DHT22;9047;53.486;10.218;2022-12-24T08:29:28;5.10;99.90
17845;DHT22;9047;53.486;10.218;2022-12-24T08:31:56;5.10;99.90
17845;DHT22;9047;53.486;10.218;2022-12-24T08:34:23;5.10;99.90
17845;DHT22;9047;53.486;10.218;2022-12-24T08:36:52;5.10;99.90
17845;DHT22;9047;53.486;10.218;2022-12-24T08:39:19;5.10;99.90
17845;DHT22;9047;53.486;10.218;2022-12-24T08:41:46;5.10;99.90
17845;DHT22;9047;53.486;10.218;2022-12-24T08:44:13;5.10;99.90
17845;DHT22;9047;53.486;10.218;2022-12-24T08:46:40;5.10;99.90
17845;DHT22;9047;53.486;10.218;2022-12-24T08:49:08;5.20;99.90
17845;DHT22;9047;53.486;10.218;2022-12-24T08:51:37;5.20;99.90
17845;DHT22;9047;53.486;10.218;2022-12-24T08:54:05;5.20;99.90
17845;DHT22;9047;53.486;10.218;2022-12-24T08:56:32;5.20;99.90
17845;DHT22;9047;53.486;10.218;2022-12-24T08:59:00;5.20;99.90
17845;DHT22;9047;53.486;10.218;2022-12-24T09:01:28;5.30;99.90
17845;DHT22;9047;53.486;10.218;2022-12-24T09:03:58;5.30;99.90
17845;DHT22;9047;53.486;10.218;2022-12-24T09:06:26;5.30;99.90
17845;DHT22;9047;53.486;10.218;2022-12-24T09:08:56;5.30;99.90
17845;DHT22;9047;53.486;10.218;2022-12-24T09:11:26;5.40;99.90
17845;DHT22;9047;53.486;10.218;2022-12-24T09:13:55;5.40;99.90
17845;DHT22;9047;53.486;10.218;2022-12-24T09:16:26;5.40;99.90
17845;DHT22;9047;53.486;10.218;2022-12-24T09:18:55;5.40;99.90
17845;DHT22;9047;53.486;10.218;2022-12-24T09:21:22;5.40;99.90
17845;DHT22;9047;53.486;10.218;2022-12-24T09:23:49;5.50;99.90
17845;DHT22;9047;53.486;10.218;2022-12-24T09:26:17;5.50;99.90
17845;DHT22;9047;53.486;10.218;2022-12-24T09:28:46;5.50;99.90
17845;DHT22;9047;53.486;10.218;2022-12-24T09:31:14;5.50;99.90
17845;DHT22;9047;53.486;10.218;2022-12-24T09:33:42;5.50;99.90
17845;DHT22;9047;53.486;10.218;2022-12-24T09:36:10;5.60;99.90
17845;DHT22;9047;53.486;10.218;2022-12-24T09:38:37;5.60;99.90
17845;DHT22;9047;53.486;10.218;2022-12-24T09:41:11;5.70;99.90
17845;DHT22;9047;53.486;10.218;2022-12-24T09:43:39;5.70;99.90
17845;DHT22;9047;53.486;10.218;2022-12-24T09:46:19;5.70;99.90
17845;DHT22;9047;53.486;10.218;2022-12-24T09:48:50;5.70;99.90
17845;DHT22;9047;53.486;10.218;2022-12-24T09:51:24;5.70;99.90
17845;DHT22;9047;53.486;10.218;2022-12-24T09:53:55;5.80;99.90
17845;DHT22;9047;53.486;10.218;2022-12-24T09:56:25;5.90;99.90
17845;DHT22;9047;53.486;10.218;2022-12-24T09:58:58;5.90;99.90
17845;DHT22;9047;53.486;10.218;2022-12-24T10:01:33;6.00;99.90
17845;DHT22;9047;53.486;10.218;2022-12-24T10:04:06;5.90;99.90
17845;DHT22;9047;53.486;10.218;2022-12-24T10:06:44;5.90;99.90
17845;DHT22;9047;53.486;10.218;2022-12-24T10:09:24;5.90;99.90
17845;DHT22;9047;53.486;10.218;2022-12-24T10:12:02;5.90;99.90
17845;DHT22;9047;53.486;10.218;2022-12-24T10:14:46;5.90;99.90
17845;DHT22;9047;53.486;10.218;2022-12-24T10:17:31;6.00;99.90
17845;DHT22;9047;53.486;10.218;2022-12-24T10:20:17;6.00;99.90
17845;DHT22;9047;53.486;10.218;2022-12-24T10:22:52;6.10;99.90
17845;DHT22;9047;53.486;10.218;2022-12-24T10:25:26;6.10;99.90
17845;DHT22;9047;53.486;10.218;2022-12-24T10:27:57;6.10;99.90
17845;DHT22;9047;53.486;10.218;2022-12-24T10:30:26;6.10;99.90
17845;DHT22;9047;53.486;10.218;2022-12-24T10:33:14;6.10;99.90
17845;DHT22;9047;53.486;10.218;2022-12-24T10:35:47;6.10;99.90
17845;DHT22;9047;53.486;10.218;2022-12-24T10:38:14;6.10;99.90
17845;DHT22;9047;53.486;10.218;2022-12-24T10:40:47;6.10;99.90
17845;DHT22;9047;53.486;10.218;2022-12-24T10:43:19;6.10;99.90
17845;DHT22;9047;53.486;10.218;2022-12-24T10:45:48;6.10;99.90
17845;DHT22;9047;53.486;10.218;2022-12-24T10:48:24;6.10;99.90
17845;DHT22;9047;53.486;10.218;2022-12-24T10:51:01;6.10;99.90
17845;DHT22;9047;53.486;10.218;2022-12-24T10:53:42;6.10;99.90
17845;DHT22;9047;53.486;10.218;2022-12-24T10:56:12;6.00;99.90
17845;DHT22;9047;53.486;10.218;2022-12-24T10:58:43;6.10;99.90
17845;DHT22;9047;53.486;10.218;2022-12-24T11:01:11;6.20;99.90
17845;DHT22;9047;53.486;10.218;2022-12-24T11:03:42;6.10;99.90
17845;DHT22;9047;53.486;10.218;2022-12-24T11:06:11;6.10;99.90
17845;DHT22;9047;53.486;10.218;2022-12-24T11:08:45;6.00;99.90
17845;DHT22;9047;53.486;10.218;2022-12-24T11:11:19;6.00;99.90
17845;DHT22;9047;53.486;10.218;2022-12-24T11:13:55;6.10;99.90
17845;DHT22;9047;53.486;10.218;2022-12-24T11:16:26;6.00;99.90
17845;DHT22;9047;53.486;10.218;2022-12-24T11:19:02;6.10;99.90
17845;DHT22;9047;53.486;10.218;2022-12-24T11:21:32;6.10;99.90
17845;DHT22;9047;53.486;10.218;2022-12-24T11:24:06;6.10;99.90
17845;DHT22;9047;53.486;10.218;2022-12-24T11:26:34;6.10;99.90
17845;DHT22;9047;53.486;10.218;2022-12-24T11:29:15;6.10;99.90
17845;DHT22;9047;53.486;10.218;2022-12-24T11:31:45;6.10;99.90
17845;DHT22;9047;53.486;10.218;2022-12-24T11:34:28;6.10;99.90
17845;DHT22;9047;53.486;10.218;2022-12-24T11:37:08;6.20;99.90
17845;DHT22;9047;53.486;10.218;2022-12-24T11:39:39;6.30;99.90
17845;DHT22;9047;53.486;10.218;2022-12-24T11:42:24;6.20;99.90
17845;DHT22;9047;53.486;10.218;2022-12-24T11:45:00;6.30;99.90
17845;DHT22;9047;53.486;10.218;2022-12-24T11:47:42;6.30;99.90
17845;DHT22;9047;53.486;10.218;2022-12-24T11:50:26;6.40;99.90
17845;DHT22;9047;53.486;10.218;2022-12-24T11:53:06;6.40;99.90
17845;DHT22;9047;53.486;10.218;2022-12-24T11:55:42;6.50;99.90
17845;DHT22;9047;53.486;10.218;2022-12-24T11:58:29;6.50;99.90
17845;DHT22;9047;53.486;10.218;2022-12-24T12:01:03;6.50;99.90
17845;DHT22;9047;53.486;10.218;2022-12-24T12:03:38;6.60;99.90
17845;DHT22;9047;53.486;10.218;2022-12-24T12:06:23;6.60;99.90
17845;DHT22;9047;53.486;10.218;2022-12-24T12:08:58;6.70;99.90
17845;DHT22;9047;53.486;10.218;2022-12-24T12:14:47;6.90;99.90
17845;DHT22;9047;53.486;10.218;2022-12-24T12:17:38;7.00;99.90
17845;DHT22;9047;53.486;10.218;2022-12-24T12:20:21;7.00;99.90
17845;DHT22;9047;53.486;10.218;2022-12-24T12:22:58;7.00;99.90
17845;DHT22;9047;53.486;10.218;2022-12-24T12:25:36;7.00;99.90
17845;DHT22;9047;53.486;10.218;2022-12-24T12:28:18;7.00;99.90
17845;DHT22;9047;53.486;10.218;2022-12-24T12:31:10;7.10;99.90
17845;DHT22;9047;53.486;10.218;2022-12-24T12:33:43;7.20;99.90
17845;DHT22;9047;53.486;10.218;2022-12-24T12:36:16;7.30;99.90
17845;DHT22;9047;53.486;10.218;2022-12-24T12:38:49;7.40;99.90
17845;DHT22;9047;53.486;10.218;2022-12-24T12:41:42;7.30;99.90
17845;DHT22;9047;53.486;10.218;2022-12-24T12:44:30;7.30;99.90
17845;DHT22;9047;53.486;10.218;2022-12-24T12:47:13;7.20;99.90
17845;DHT22;9047;53.486;10.218;2022-12-24T12:49:50;7.10;99.90
17845;DHT22;9047;53.486;10.218;2022-12-24T12:52:42;7.20;99.90
17845;DHT22;9047;53.486;10.218;2022-12-24T12:55:57;7.20;99.90
17845;DHT22;9047;53.486;10.218;2022-12-24T12:58:36;7.30;99.90
17845;DHT22;9047;53.486;10.218;2022-12-24T13:01:10;7.40;99.90
17845;DHT22;9047;53.486;10.218;2022-12-24T13:07:20;7.20;99.90
17845;DHT22;9047;53.486;10.218;2022-12-24T13:10:08;7.10;99.90
17845;DHT22;9047;53.486;10.218;2022-12-24T13:12:56;7.10;99.90
17845;DHT22;9047;53.486;10.218;2022-12-24T13:16:00;7.10;99.90
17845;DHT22;9047;53.486;10.218;2022-12-24T13:18:48;7.10;99.90
17845;DHT22;9047;53.486;10.218;2022-12-24T13:21:33;7.10;99.90
17845;DHT22;9047;53.486;10.218;2022-12-24T13:24:04;7.00;99.90
17845;DHT22;9047;53.486;10.218;2022-12-24T13:26:34;7.10;99.90
17845;DHT22;9047;53.486;10.218;2022-12-24T13:29:38;7.10;99.90
17845;DHT22;9047;53.486;10.218;2022-12-24T13:32:39;7.30;99.90
17845;DHT22;9047;53.486;10.218;2022-12-24T13:35:35;7.40;99.90
17845;DHT22;9047;53.486;10.218;2022-12-24T13:41:37;7.50;99.90
17845;DHT22;9047;53.486;10.218;2022-12-24T13:44:29;7.50;99.90
17845;DHT22;9047;53.486;10.218;2022-12-24T13:47:16;7.50;99.90
17845;DHT22;9047;53.486;10.218;2022-12-24T13:49:49;7.50;99.90
17845;DHT22;9047;53.486;10.218;2022-12-24T13:52:27;7.50;99.90
17845;DHT22;9047;53.486;10.218;2022-12-24T13:55:28;7.40;99.90
17845;DHT22;9047;53.486;10.218;2022-12-24T13:58:27;7.40;99.90
17845;DHT22;9047;53.486;10.218;2022-12-24T14:01:21;7.40;99.90
17845;DHT22;9047;53.486;10.218;2022-12-24T14:03:56;7.50;99.90
17845;DHT22;9047;53.486;10.218;2022-12-24T14:06:30;7.30;99.90
17845;DHT22;9047;53.486;10.218;2022-12-24T14:09:08;7.20;99.90
17845;DHT22;9047;53.486;10.218;2022-12-24T14:14:42;7.20;99.90
17845;DHT22;9047;53.486;10.218;2022-12-24T14:17:14;7.20;99.90
17845;DHT22;9047;53.486;10.218;2022-12-24T14:19:53;7.20;99.90
17845;DHT22;9047;53.486;10.218;2022-12-24T14:22:28;7.20;99.90
17845;DHT22;9047;53.486;10.218;2022-12-24T14:24:58;7.20;99.90
17845;DHT22;9047;53.486;10.218;2022-12-24T14:27:32;7.10;99.90
17845;DHT22;9047;53.486;10.218;2022-12-24T14:30:04;7.10;99.90
17845;DHT22;9047;53.486;10.218;2022-12-24T14:32:47;7.00;99.90
17845;DHT22;9047;53.486;10.218;2022-12-24T14:35:20;7.00;99.90
17845;DHT22;9047;53.486;10.218;2022-12-24T14:37:56;7.00;99.90
17845;DHT22;9047;53.486;10.218;2022-12-24T14:40:27;7.00;99.90
17845;DHT22;9047;53.486;10.218;2022-12-24T14:43:00;7.00;99.90
17845;DHT22;9047;53.486;10.218;2022-12-24T14:45:34;7.00;99.90
17845;DHT22;9047;53.486;10.218;2022-12-24T14:48:14;7.00;99.90
17845;DHT22;9047;53.486;10.218;2022-12-24T14:51:21;7.00;99.90
17845;DHT22;9047;53.486;10.218;2022-12-24T14:57:20;7.00;99.90
17845;DHT22;9047;53.486;10.218;2022-12-24T14:59:52;6.90;99.90
17845;DHT22;9047;53.486;10.218;2022-12-24T15:02:36;6.90;99.90
17845;DHT22;9047;53.486;10.218;2022-12-24T15:05:15;7.00;99.90
17845;DHT22;9047;53.486;10.218;2022-12-24T15:07:55;6.90;99.90
17845;DHT22;9047;53.486;10.218;2022-12-24T15:10:29;6.90;99.90
17845;DHT22;9047;53.486;10.218;2022-12-24T15:13:20;6.90;99.90
17845;DHT22;9047;53.486;10.218;2022-12-24T15:15:49;6.90;99.90
17845;DHT22;9047;53.486;10.218;2022-12-24T15:18:19;6.90;99.90
17845;DHT22;9047;53.486;10.218;2022-12-24T15:20:52;6.90;99.90
17845;DHT22;9047;53.486;10.218;2022-12-24T15:23:27;6.90;99.90
17845;DHT22;9047;53.486;10.218;2022-12-24T15:26:07;6.90;99.90
17845;DHT22;9047;53.486;10.218;2022-12-24T15:28:51;6.90;99.90
17845;DHT22;9047;53.486;10.218;2022-12-24T15:31:20;6.90;99.90
17845;DHT22;9047;53.486;10.218;2022-12-24T15:33:53;6.80;99.90
17845;DHT22;9047;53.486;10.218;2022-12-24T15:36:26;6.90;99.90
17845;DHT22;9047;53.486;10.218;2022-12-24T15:38:58;7.00;99.90
17845;DHT22;9047;53.486;10.218;2022-12-24T15:41:29;7.00;99.90
17845;DHT22;9047;53.486;10.218;2022-12-24T15:44:01;7.00;99.90
17845;DHT22;9047;53.486;10.218;2022-12-24T15:46:36;7.00;99.90
17845;DHT22;9047;53.486;10.218;2022-12-24T15:49:04;7.10;99.90
17845;DHT22;9047;53.486;10.218;2022-12-24T15:51:35;7.10;99.90
17845;DHT22;9047;53.486;10.218;2022-12-24T15:54:11;7.10;99.90
17845;DHT22;9047;53.486;10.218;2022-12-24T15:56:41;7.00;99.90
17845;DHT22;9047;53.486;10.218;2022-12-24T15:59:27;7.00;99.90
17845;DHT22;9047;53.486;10.218;2022-12-24T16:01:55;7.00;99.90
17845;DHT22;9047;53.486;10.218;2022-12-24T16:04:25;7.10;99.90
17845;DHT22;9047;53.486;10.218;2022-12-24T16:06:55;7.10;99.90
17845;DHT22;9047;53.486;10.218;2022-12-24T16:09:35;7.10;99.90
17845;DHT22;9047;53.486;10.218;2022-12-24T16:12:11;7.10;99.90
17845;DHT22;9047;53.486;10.218;2022-12-24T16:14:40;7.10;99.90
17845;DHT22;9047;53.486;10.218;2022-12-24T16:17:18;7.10;99.90
17845;DHT22;9047;53.486;10.218;2022-12-24T16:19:49;7.10;99.90
17845;DHT22;9047;53.486;10.218;2022-12-24T16:22:33;7.20;99.90
17845;DHT22;9047;53.486;10.218;2022-12-24T16:25:21;7.20;99.90
17845;DHT22;9047;53.486;10.218;2022-12-24T16:27:49;7.20;99.90
17845;DHT22;9047;53.486;10.218;2022-12-24T16:30:18;7.20;99.90
17845;DHT22;9047;53.486;10.218;2022-12-24T16:32:48;7.30;99.90
17845;DHT22;9047;53.486;10.218;2022-12-24T16:35:30;7.30;99.90
17845;DHT22;9047;53.486;10.218;2022-12-24T16:38:12;7.30;99.90